[vc_row][vc_column width=”2/3″]

Nesenie raksti

Ziņas

[/vc_column][vc_column width=”1/3″ el_class=”sticky-column”]

Par Gliding.lv

[vc_column_text]Gliding.lv ir interneta vietne par planieriem un planierismu. Šeit būs atrodama informācija par iespējām pamēģināt, iesaistīties un organizēt planierisma aktivitātes. Izmanto Gliding.lv forumu, ja Tev ir kāda tēma diskusijai vai jautājums. Gliding.lv merķis ir informēt un apvienot planierisma interesentus, nodrošinot un apmainoties ar aktuālāko un arī bijušo. Lidojam![/vc_column_text][vc_column_text]
[/vc_column_text]

METAR

EVRA 202020Z VRB02KT CAVOK 24/18 Q1013 NOSIG

EVLA 202020Z AUTO 12003KT 9999 NCD 24/18 Q1011

EVVA 202020Z AUTO 09003KT CAVOK 21/18 Q1012

Nesenie raksti

[/vc_column][/vc_row]

Pāriet uz rīkjoslu